Portada
METAR-TAF:

METAR-TAF

Aeroports :

Siem Reap, Cambodja

latitud: 13-22N, longitud: 103-51E, altitud: 15 m

Observació

L'informe es va fer fa 2 hores i 40 minuts, a les 01:00 UTC
Vent 3 kt del Est
Temperatura 26°C
Humitat 89%
Pressió 1012 hPa
Visibilitat 10 km o més
Núvols disperses a una alçada de 1700 ft

METAR: VDSR 010100Z 08003KT 9999 SCT017 26/24 Q1012

Hora: 10:40 (03:40 UTC)

Pronòstic

L'informe es va fer fa 4 hores i 40 minuts, a les 23:00 UTC
Pronòstic vàlid del 01 a les 00 UTC al 01 a les 18 UTC
Vent 7 kt del Sud-Est
Visibilitat 10 km o més
Núvols disperses a una alçada de 1700 ft
Temporalment
l' 01 a les 06 UTC al 01 a les 11 UTC
Núvols disperses a una alçada de 1500 ft
Escasses núvols a una alçada de 1700 ft, Cumulonimbus.
Núvols disperses a una alçada de 4000 ft

TAF: VDSR 282300Z 0100/0118 14007KT 9999 SCT017 TEMPO 0106/0111 SCT015 FEW017CB SCT040

Observacions i pronòstics meteorològics de més de 4000 aeroports (METAR i TAF).

Les estacions disponibles són els punts grocs i vermells al mapa.

Posi el ratolí al punt desitjat per veure el nom de l'estació.

Feu clic per veure les observacions i els pronòstics meteorològics.

Per canviar el mapa: feu clic els botons verds amb una creu de color negre per apropar; al botó verd amb un guió per allunyar la imatge; o en les fletxes verdes per a mapes adjacents.


METAR-TAF: